National Weather Service Raw Text Product

Displaying AFOS PIL: TAFFOD Received: 2017-11-15 06:28 UTC


833 
FTUS43 KDMX 150628 AAA
TAFFOD
TAF AMD
KFOD 150628Z 1506/1606 22008KT P6SM SCT012 SCT120
     FM150800 29011KT P6SM BKN017
     FM151100 31013KT P6SM SCT100
     FM151500 32012G17KT P6SM SCT030
     FM160100 34006KT P6SM SCT030=